GMTA/AHU METAR and TAF weather

Enter ICAO airport designator
Station Type Date Time Source
GMTA METAR 2019/04/23 00:00 UTC NOAA

GMTA 230000Z 00000KT CAVOK 16/12 Q1004 NOSIG


Station Type Date Time Source
GMTA Decoded METAR 2019/04/23 00:00 UTC NOAA

Al Hoceima, Morocco (GMTA) 35-11N 003-51W 14M
Apr 22, 2019 - 08:00 PM EDT / 2019.04.23 0000 UTC
Wind: Calm:0
Visibility: greater than 7 mile(s):0
Temperature: 60 F (16 C)
Dew Point: 53 F (12 C)
Relative Humidity: 77%
Pressure (altimeter): 29.65 in. Hg (1004 hPa)
ob: GMTA 230000Z 00000KT CAVOK 16/12 Q1004 NOSIG
cycle: 0

Station Type Date Time Source
GMTA TAF 2019/04/22 18:18 UTC NOAA

TAF GMTA 221700Z 2218/2324 30012KT 9999 FEW020 PROB40
TEMPO 2306/2315 6000 -RA BKN008 SCT020TCU

Example: see airport list